Thatcher, Colorado
Current Conditions -  °F | °C
As of 5:54 PM on Friday 24 Oct 2014 (Local Time) from KTAD Reporting Station
Clear Clear  
Wind Chill: 75°   Ceiling: Unl
Heat Index: 75°   Visibility: 10mi
Dew Point: 29°   Wind: 0mph
Humidity: 18%   Direction: NA
Pressure: 30.19"   Gusts: NA
Location:  37.5307°N, 104.063°W
Report Text: KTAD 242354Z AUTO 00000KT 10SM CLR 24/M02 A3019 RMK AO2 SLP159 T02391017 10278 20233 53002
Loading
Personal Weather Stations






























Interactive Weather Map
Tropical Storm Tracking
New forecast layout! Learn more

10-Day Weather Forecast

Advertisements
Track Severe Weather on mobile